sensor_id;sensor_type;location;lat;lon;timestamp;pressure;altitude;pressure_sealevel;temperature;humidity
6851;BME280;3464;42.728;23.296;2023-04-10T00:05:22;95370.32;;;12.95;68.45
6851;BME280;3464;42.728;23.296;2023-04-10T00:07:51;95366.83;;;12.31;71.00
6851;BME280;3464;42.728;23.296;2023-04-10T00:10:20;95370.06;;;12.02;71.61
6851;BME280;3464;42.728;23.296;2023-04-10T00:12:48;95366.68;;;12.00;71.31
6851;BME280;3464;42.728;23.296;2023-04-10T00:15:16;95362.07;;;11.99;71.76
6851;BME280;3464;42.728;23.296;2023-04-10T00:17:43;95357.08;;;12.17;70.81
6851;BME280;3464;42.728;23.296;2023-04-10T00:20:17;95358.41;;;12.35;69.65
6851;BME280;3464;42.728;23.296;2023-04-10T00:22:50;95360.50;;;11.50;71.10
6851;BME280;3464;42.728;23.296;2023-04-10T00:25:20;95362.02;;;11.90;70.29
6851;BME280;3464;42.728;23.296;2023-04-10T00:27:53;95361.16;;;11.87;69.94
6851;BME280;3464;42.728;23.296;2023-04-10T00:30:22;95354.84;;;11.87;69.61
6851;BME280;3464;42.728;23.296;2023-04-10T00:32:51;95360.24;;;11.71;69.21
6851;BME280;3464;42.728;23.296;2023-04-10T00:35:25;95358.60;;;11.78;68.70
6851;BME280;3464;42.728;23.296;2023-04-10T00:37:57;95357.44;;;11.99;68.13
6851;BME280;3464;42.728;23.296;2023-04-10T00:40:26;95354.61;;;12.27;66.51
6851;BME280;3464;42.728;23.296;2023-04-10T00:42:56;95348.65;;;12.11;67.26
6851;BME280;3464;42.728;23.296;2023-04-10T00:45:26;95353.88;;;12.71;66.73
6851;BME280;3464;42.728;23.296;2023-04-10T00:47:58;95353.67;;;11.99;67.64
6851;BME280;3464;42.728;23.296;2023-04-10T00:50:48;95353.89;;;12.80;67.33
6851;BME280;3464;42.728;23.296;2023-04-10T00:53:45;95354.22;;;12.38;68.31
6851;BME280;3464;42.728;23.296;2023-04-10T00:56:44;95348.76;;;12.38;68.86
6851;BME280;3464;42.728;23.296;2023-04-10T00:59:21;95345.42;;;12.51;68.86
6851;BME280;3464;42.728;23.296;2023-04-10T01:01:49;95349.69;;;12.76;68.79
6851;BME280;3464;42.728;23.296;2023-04-10T01:04:16;95340.26;;;12.15;69.04
6851;BME280;3464;42.728;23.296;2023-04-10T01:06:54;95339.97;;;12.65;69.12
6851;BME280;3464;42.728;23.296;2023-04-10T01:12:38;95329.69;;;11.96;70.67
6851;BME280;3464;42.728;23.296;2023-04-10T01:15:16;95332.72;;;12.18;71.21
6851;BME280;3464;42.728;23.296;2023-04-10T01:18:03;95325.97;;;12.14;71.39
6851;BME280;3464;42.728;23.296;2023-04-10T01:20:41;95326.39;;;12.14;70.58
6851;BME280;3464;42.728;23.296;2023-04-10T01:26:02;95327.28;;;12.32;70.66
6851;BME280;3464;42.728;23.296;2023-04-10T01:31:59;95331.81;;;12.06;71.54
6851;BME280;3464;42.728;23.296;2023-04-10T01:34:54;95305.69;;;11.91;73.71
6851;BME280;3464;42.728;23.296;2023-04-10T01:37:44;95324.27;;;12.07;74.07
6851;BME280;3464;42.728;23.296;2023-04-10T01:40:39;95323.47;;;12.21;74.03
6851;BME280;3464;42.728;23.296;2023-04-10T01:43:18;95329.83;;;12.38;72.28
6851;BME280;3464;42.728;23.296;2023-04-10T01:45:49;95322.25;;;12.32;73.22
6851;BME280;3464;42.728;23.296;2023-04-10T02:09:05;95319.62;;;12.01;72.16
6851;BME280;3464;42.728;23.296;2023-04-10T02:12:01;95314.28;;;12.57;71.06
6851;BME280;3464;42.728;23.296;2023-04-10T02:14:49;95315.90;;;12.20;71.33
6851;BME280;3464;42.728;23.296;2023-04-10T02:17:26;95312.20;;;12.74;70.49
6851;BME280;3464;42.728;23.296;2023-04-10T02:19:53;95310.80;;;12.10;71.01
6851;BME280;3464;42.728;23.296;2023-04-10T02:22:21;95306.29;;;12.46;70.48
6851;BME280;3464;42.728;23.296;2023-04-10T02:24:49;95306.69;;;12.37;70.50
6851;BME280;3464;42.728;23.296;2023-04-10T02:29:51;95300.02;;;12.78;69.64
6851;BME280;3464;42.728;23.296;2023-04-10T02:32:19;95304.20;;;12.80;68.83
6851;BME280;3464;42.728;23.296;2023-04-10T02:34:50;95297.51;;;13.16;68.22
6851;BME280;3464;42.728;23.296;2023-04-10T02:37:18;95288.20;;;13.29;67.15
6851;BME280;3464;42.728;23.296;2023-04-10T02:39:48;95290.35;;;13.12;67.73
6851;BME280;3464;42.728;23.296;2023-04-10T02:42:25;95287.81;;;13.17;67.20
6851;BME280;3464;42.728;23.296;2023-04-10T02:45:15;95281.07;;;13.27;66.75
6851;BME280;3464;42.728;23.296;2023-04-10T02:56:58;95273.91;;;12.95;68.08
6851;BME280;3464;42.728;23.296;2023-04-10T02:59:28;95272.22;;;12.72;68.39
6851;BME280;3464;42.728;23.296;2023-04-10T03:01:56;95274.73;;;12.92;68.70
6851;BME280;3464;42.728;23.296;2023-04-10T03:04:25;95275.16;;;12.56;70.33
6851;BME280;3464;42.728;23.296;2023-04-10T03:06:53;95277.27;;;12.65;70.20
6851;BME280;3464;42.728;23.296;2023-04-10T03:09:27;95270.47;;;12.17;71.87
6851;BME280;3464;42.728;23.296;2023-04-10T03:11:56;95277.73;;;11.50;74.04
6851;BME280;3464;42.728;23.296;2023-04-10T03:14:31;95281.54;;;11.57;74.50
6851;BME280;3464;42.728;23.296;2023-04-10T03:17:05;95281.52;;;11.50;74.42
6851;BME280;3464;42.728;23.296;2023-04-10T03:19:42;95280.61;;;11.35;76.19
6851;BME280;3464;42.728;23.296;2023-04-10T03:22:11;95282.75;;;11.44;75.53
6851;BME280;3464;42.728;23.296;2023-04-10T03:24:44;95283.95;;;11.35;77.29
6851;BME280;3464;42.728;23.296;2023-04-10T03:27:13;95290.13;;;11.15;78.58
6851;BME280;3464;42.728;23.296;2023-04-10T03:29:40;95287.70;;;11.32;78.26
6851;BME280;3464;42.728;23.296;2023-04-10T03:32:07;95291.78;;;11.13;79.25
6851;BME280;3464;42.728;23.296;2023-04-10T03:34:42;95291.28;;;11.02;79.54
6851;BME280;3464;42.728;23.296;2023-04-10T03:37:11;95291.14;;;10.36;82.53
6851;BME280;3464;42.728;23.296;2023-04-10T03:39:38;95298.86;;;10.54;82.87
6851;BME280;3464;42.728;23.296;2023-04-10T03:42:08;95295.88;;;10.49;83.41
6851;BME280;3464;42.728;23.296;2023-04-10T03:44:34;95284.13;;;10.97;82.04
6851;BME280;3464;42.728;23.296;2023-04-10T03:47:02;95293.43;;;11.07;80.41
6851;BME280;3464;42.728;23.296;2023-04-10T03:49:32;95295.77;;;10.84;80.85
6851;BME280;3464;42.728;23.296;2023-04-10T03:52:02;95294.30;;;10.57;82.33
6851;BME280;3464;42.728;23.296;2023-04-10T03:58:05;95303.30;;;10.83;81.58
6851;BME280;3464;42.728;23.296;2023-04-10T04:22:49;95312.92;;;12.17;76.70
6851;BME280;3464;42.728;23.296;2023-04-10T04:25:59;95312.53;;;12.27;75.31
6851;BME280;3464;42.728;23.296;2023-04-10T04:28:30;95307.38;;;11.88;75.47
6851;BME280;3464;42.728;23.296;2023-04-10T04:30:58;95307.50;;;12.32;75.77
6851;BME280;3464;42.728;23.296;2023-04-10T04:33:26;95307.20;;;13.08;72.88
6851;BME280;3464;42.728;23.296;2023-04-10T04:36:08;95303.70;;;13.81;71.11
6851;BME280;3464;42.728;23.296;2023-04-10T04:38:36;95304.76;;;14.35;67.84
6851;BME280;3464;42.728;23.296;2023-04-10T04:41:05;95313.86;;;14.67;65.95
6851;BME280;3464;42.728;23.296;2023-04-10T04:43:33;95310.94;;;15.16;64.45
6851;BME280;3464;42.728;23.296;2023-04-10T04:46:02;95310.41;;;14.74;64.45
6851;BME280;3464;42.728;23.296;2023-04-10T04:48:29;95312.52;;;15.77;62.21
6851;BME280;3464;42.728;23.296;2023-04-10T04:50:57;95306.31;;;15.64;62.35
6851;BME280;3464;42.728;23.296;2023-04-10T04:53:27;95309.66;;;16.39;61.02
6851;BME280;3464;42.728;23.296;2023-04-10T04:55:54;95306.59;;;16.79;59.13
6851;BME280;3464;42.728;23.296;2023-04-10T04:58:42;95306.36;;;17.48;56.99
6851;BME280;3464;42.728;23.296;2023-04-10T05:01:09;95315.09;;;17.79;56.84
6851;BME280;3464;42.728;23.296;2023-04-10T05:03:38;95316.97;;;17.92;55.85
6851;BME280;3464;42.728;23.296;2023-04-10T05:06:14;95317.78;;;18.59;54.68
6851;BME280;3464;42.728;23.296;2023-04-10T05:08:44;95328.69;;;18.01;53.22
6851;BME280;3464;42.728;23.296;2023-04-10T05:11:14;95314.13;;;18.70;53.39
6851;BME280;3464;42.728;23.296;2023-04-10T05:13:41;95321.21;;;18.14;52.30
6851;BME280;3464;42.728;23.296;2023-04-10T05:16:10;95311.60;;;18.69;52.48
6851;BME280;3464;42.728;23.296;2023-04-10T05:18:42;95317.28;;;18.42;52.11
6851;BME280;3464;42.728;23.296;2023-04-10T05:21:08;95318.19;;;18.18;51.90
6851;BME280;3464;42.728;23.296;2023-04-10T05:23:36;95317.73;;;18.97;50.96
6851;BME280;3464;42.728;23.296;2023-04-10T05:26:07;95318.50;;;18.64;50.47
6851;BME280;3464;42.728;23.296;2023-04-10T05:28:35;95315.41;;;19.91;48.77
6851;BME280;3464;42.728;23.296;2023-04-10T05:31:03;95314.44;;;21.27;45.78
6851;BME280;3464;42.728;23.296;2023-04-10T05:33:30;95310.29;;;21.76;44.47
6851;BME280;3464;42.728;23.296;2023-04-10T05:35:57;95310.66;;;20.70;46.06
6851;BME280;3464;42.728;23.296;2023-04-10T05:38:24;95311.44;;;21.54;45.03
6851;BME280;3464;42.728;23.296;2023-04-10T05:40:52;95308.52;;;21.38;44.91
6851;BME280;3464;42.728;23.296;2023-04-10T05:43:24;95313.53;;;21.93;43.84
6851;BME280;3464;42.728;23.296;2023-04-10T05:46:02;95310.04;;;22.55;45.19
6851;BME280;3464;42.728;23.296;2023-04-10T05:48:48;95308.02;;;23.40;41.60
6851;BME280;3464;42.728;23.296;2023-04-10T05:51:28;95305.58;;;25.03;39.66
6851;BME280;3464;42.728;23.296;2023-04-10T05:54:06;95302.23;;;25.10;39.06
6851;BME280;3464;42.728;23.296;2023-04-10T05:56:38;95311.92;;;22.84;40.63
6851;BME280;3464;42.728;23.296;2023-04-10T05:59:08;95314.88;;;23.17;40.92
6851;BME280;3464;42.728;23.296;2023-04-10T06:01:40;95314.68;;;24.35;39.45
6851;BME280;3464;42.728;23.296;2023-04-10T06:04:07;95320.16;;;23.98;39.41
6851;BME280;3464;42.728;23.296;2023-04-10T06:06:35;95317.83;;;24.51;38.15
6851;BME280;3464;42.728;23.296;2023-04-10T06:09:01;95319.21;;;23.49;38.52
6851;BME280;3464;42.728;23.296;2023-04-10T06:11:30;95315.85;;;23.68;39.19
6851;BME280;3464;42.728;23.296;2023-04-10T06:14:02;95312.99;;;23.54;39.16
6851;BME280;3464;42.728;23.296;2023-04-10T06:16:29;95311.81;;;23.51;39.79
6851;BME280;3464;42.728;23.296;2023-04-10T06:18:58;95302.26;;;24.82;37.78
6851;BME280;3464;42.728;23.296;2023-04-10T06:21:25;95299.18;;;25.28;35.35
6851;BME280;3464;42.728;23.296;2023-04-10T06:23:54;95296.17;;;24.75;35.69
6851;BME280;3464;42.728;23.296;2023-04-10T06:26:24;95302.62;;;25.55;35.36
6851;BME280;3464;42.728;23.296;2023-04-10T06:28:53;95298.34;;;24.83;35.77
6851;BME280;3464;42.728;23.296;2023-04-10T06:31:24;95299.40;;;25.34;35.26
6851;BME280;3464;42.728;23.296;2023-04-10T06:33:50;95298.87;;;23.01;37.93
6851;BME280;3464;42.728;23.296;2023-04-10T06:36:17;95301.75;;;22.24;38.57
6851;BME280;3464;42.728;23.296;2023-04-10T06:38:47;95307.41;;;23.33;38.17
6851;BME280;3464;42.728;23.296;2023-04-10T06:41:15;95310.50;;;22.30;39.15
6851;BME280;3464;42.728;23.296;2023-04-10T06:43:44;95305.25;;;22.79;38.78
6851;BME280;3464;42.728;23.296;2023-04-10T06:46:11;95304.86;;;21.07;41.10
6851;BME280;3464;42.728;23.296;2023-04-10T07:01:23;95334.91;;;16.16;52.00
6851;BME280;3464;42.728;23.296;2023-04-10T07:04:09;95329.36;;;17.14;49.46
6851;BME280;3464;42.728;23.296;2023-04-10T07:06:48;95325.34;;;16.38;51.05
6851;BME280;3464;42.728;23.296;2023-04-10T07:12:13;95338.58;;;15.51;53.43
6851;BME280;3464;42.728;23.296;2023-04-10T07:14:40;95338.24;;;15.40;54.18
6851;BME280;3464;42.728;23.296;2023-04-10T07:17:11;95330.35;;;16.07;52.90
6851;BME280;3464;42.728;23.296;2023-04-10T07:19:41;95340.48;;;15.73;53.65
6851;BME280;3464;42.728;23.296;2023-04-10T07:22:09;95336.44;;;15.01;54.88
6851;BME280;3464;42.728;23.296;2023-04-10T07:24:40;95338.53;;;15.96;53.37
6851;BME280;3464;42.728;23.296;2023-04-10T07:27:11;95345.64;;;16.03;52.98
6851;BME280;3464;42.728;23.296;2023-04-10T07:29:41;95348.53;;;14.56;55.58
6851;BME280;3464;42.728;23.296;2023-04-10T07:32:08;95345.31;;;14.15;57.97
6851;BME280;3464;42.728;23.296;2023-04-10T07:47:52;95340.08;;;16.43;51.74
6851;BME280;3464;42.728;23.296;2023-04-10T07:50:18;95341.96;;;16.92;50.09
6851;BME280;3464;42.728;23.296;2023-04-10T07:52:48;95340.83;;;17.12;50.63
6851;BME280;3464;42.728;23.296;2023-04-10T07:55:19;95335.87;;;17.80;49.65
6851;BME280;3464;42.728;23.296;2023-04-10T07:57:47;95333.07;;;18.16;47.53
6851;BME280;3464;42.728;23.296;2023-04-10T08:00:14;95331.66;;;18.45;47.88
6851;BME280;3464;42.728;23.296;2023-04-10T08:02:44;95333.92;;;18.16;47.54
6851;BME280;3464;42.728;23.296;2023-04-10T08:05:13;95337.34;;;16.90;49.66
6851;BME280;3464;42.728;23.296;2023-04-10T08:07:42;95329.63;;;15.58;50.72
6851;BME280;3464;42.728;23.296;2023-04-10T08:10:10;95338.26;;;15.36;50.27
6851;BME280;3464;42.728;23.296;2023-04-10T08:12:40;95333.11;;;16.26;49.04
6851;BME280;3464;42.728;23.296;2023-04-10T08:17:58;95333.77;;;16.74;48.17
6851;BME280;3464;42.728;23.296;2023-04-10T08:20:28;95330.68;;;16.83;47.68
6851;BME280;3464;42.728;23.296;2023-04-10T08:22:58;95333.42;;;16.34;48.97
6851;BME280;3464;42.728;23.296;2023-04-10T08:25:26;95327.83;;;16.42;48.79
6851;BME280;3464;42.728;23.296;2023-04-10T08:27:58;95328.46;;;16.58;47.96
6851;BME280;3464;42.728;23.296;2023-04-10T08:30:27;95326.79;;;17.43;47.24
6851;BME280;3464;42.728;23.296;2023-04-10T08:32:54;95319.77;;;18.24;44.75
6851;BME280;3464;42.728;23.296;2023-04-10T08:44:52;95330.81;;;16.05;46.73
6851;BME280;3464;42.728;23.296;2023-04-10T08:47:22;95330.44;;;16.01;47.38
6851;BME280;3464;42.728;23.296;2023-04-10T08:49:55;95323.69;;;16.68;45.87
6851;BME280;3464;42.728;23.296;2023-04-10T08:52:25;95325.61;;;15.79;47.11
6851;BME280;3464;42.728;23.296;2023-04-10T08:54:53;95326.70;;;15.55;47.81
6851;BME280;3464;42.728;23.296;2023-04-10T08:57:19;95316.33;;;16.49;46.14
6851;BME280;3464;42.728;23.296;2023-04-10T08:59:47;95324.14;;;16.94;45.55
6851;BME280;3464;42.728;23.296;2023-04-10T09:02:13;95315.06;;;17.33;44.90
6851;BME280;3464;42.728;23.296;2023-04-10T09:04:43;95314.41;;;16.65;45.05
6851;BME280;3464;42.728;23.296;2023-04-10T09:07:09;95309.47;;;17.85;43.93
6851;BME280;3464;42.728;23.296;2023-04-10T09:09:39;95320.70;;;16.70;44.86
6851;BME280;3464;42.728;23.296;2023-04-10T09:12:09;95312.28;;;15.58;46.63
6851;BME280;3464;42.728;23.296;2023-04-10T09:14:38;95324.41;;;16.09;45.74
6851;BME280;3464;42.728;23.296;2023-04-10T09:17:16;95311.12;;;15.47;47.22
6851;BME280;3464;42.728;23.296;2023-04-10T09:19:42;95315.45;;;15.79;47.28
6851;BME280;3464;42.728;23.296;2023-04-10T09:22:09;95321.03;;;15.22;47.65
6851;BME280;3464;42.728;23.296;2023-04-10T09:24:39;95308.89;;;15.98;46.51
6851;BME280;3464;42.728;23.296;2023-04-10T09:27:15;95304.33;;;15.90;47.10
6851;BME280;3464;42.728;23.296;2023-04-10T09:29:50;95303.64;;;16.13;48.72
6851;BME280;3464;42.728;23.296;2023-04-10T09:34:55;95300.70;;;15.74;49.74
6851;BME280;3464;42.728;23.296;2023-04-10T09:37:21;95306.27;;;16.05;48.73
6851;BME280;3464;42.728;23.296;2023-04-10T09:39:48;95301.47;;;15.82;49.62
6851;BME280;3464;42.728;23.296;2023-04-10T09:42:15;95299.61;;;15.97;50.10
6851;BME280;3464;42.728;23.296;2023-04-10T09:44:43;95313.83;;;16.09;50.06
6851;BME280;3464;42.728;23.296;2023-04-10T09:47:16;95302.09;;;15.60;50.54
6851;BME280;3464;42.728;23.296;2023-04-10T09:49:46;95305.29;;;15.39;50.55
6851;BME280;3464;42.728;23.296;2023-04-10T09:52:33;95300.36;;;15.67;50.74
6851;BME280;3464;42.728;23.296;2023-04-10T09:55:02;95303.12;;;15.43;51.33
6851;BME280;3464;42.728;23.296;2023-04-10T09:57:29;95317.19;;;14.75;52.84
6851;BME280;3464;42.728;23.296;2023-04-10T09:59:56;95298.34;;;15.56;51.40
6851;BME280;3464;42.728;23.296;2023-04-10T10:02:22;95305.87;;;16.04;49.51
6851;BME280;3464;42.728;23.296;2023-04-10T10:04:49;95294.97;;;15.54;50.15
6851;BME280;3464;42.728;23.296;2023-04-10T10:07:19;95300.57;;;15.44;50.77
6851;BME280;3464;42.728;23.296;2023-04-10T10:09:47;95304.32;;;16.59;48.91
6851;BME280;3464;42.728;23.296;2023-04-10T10:12:15;95288.84;;;15.73;50.59
6851;BME280;3464;42.728;23.296;2023-04-10T10:15:07;95289.55;;;15.87;50.50
6851;BME280;3464;42.728;23.296;2023-04-10T10:17:31;95280.27;;;15.86;50.03
6851;BME280;3464;42.728;23.296;2023-04-10T10:20:00;95289.91;;;15.53;50.03
6851;BME280;3464;42.728;23.296;2023-04-10T10:25:16;95283.30;;;15.39;50.09
6851;BME280;3464;42.728;23.296;2023-04-10T10:27:42;95274.09;;;16.07;49.76
6851;BME280;3464;42.728;23.296;2023-04-10T10:30:11;95276.82;;;16.24;49.08
6851;BME280;3464;42.728;23.296;2023-04-10T10:32:38;95263.45;;;17.50;47.30
6851;BME280;3464;42.728;23.296;2023-04-10T10:35:05;95258.63;;;17.81;46.37
6851;BME280;3464;42.728;23.296;2023-04-10T10:38:01;95269.06;;;17.19;46.16
6851;BME280;3464;42.728;23.296;2023-04-10T10:40:46;95271.48;;;16.46;46.42
6851;BME280;3464;42.728;23.296;2023-04-10T10:43:24;95259.97;;;16.18;47.36
6851;BME280;3464;42.728;23.296;2023-04-10T10:45:52;95254.04;;;16.18;46.15
6851;BME280;3464;42.728;23.296;2023-04-10T10:48:20;95243.66;;;17.43;44.17
6851;BME280;3464;42.728;23.296;2023-04-10T10:51:03;95242.45;;;17.13;44.56
6851;BME280;3464;42.728;23.296;2023-04-10T10:53:36;95230.11;;;18.06;42.69
6851;BME280;3464;42.728;23.296;2023-04-10T10:56:33;95229.66;;;18.65;42.35
6851;BME280;3464;42.728;23.296;2023-04-10T10:59:00;95240.56;;;16.74;44.65
6851;BME280;3464;42.728;23.296;2023-04-10T11:01:28;95229.70;;;17.38;46.30
6851;BME280;3464;42.728;23.296;2023-04-10T11:03:55;95230.23;;;17.57;45.82
6851;BME280;3464;42.728;23.296;2023-04-10T11:06:46;95224.47;;;17.91;45.38
6851;BME280;3464;42.728;23.296;2023-04-10T11:08:50;95223.61;;;17.70;45.66
6851;BME280;3464;42.728;23.296;2023-04-10T11:11:18;95230.34;;;17.51;46.05
6851;BME280;3464;42.728;23.296;2023-04-10T11:14:11;95225.87;;;17.16;46.47
6851;BME280;3464;42.728;23.296;2023-04-10T11:16:42;95223.61;;;18.12;44.80
6851;BME280;3464;42.728;23.296;2023-04-10T11:19:10;95214.42;;;17.63;45.41
6851;BME280;3464;42.728;23.296;2023-04-10T11:22:05;95214.63;;;17.05;45.66
6851;BME280;3464;42.728;23.296;2023-04-10T11:27:12;95220.66;;;16.13;46.20
6851;BME280;3464;42.728;23.296;2023-04-10T11:29:36;95226.34;;;16.63;44.69
6851;BME280;3464;42.728;23.296;2023-04-10T11:32:04;95211.34;;;17.90;43.77
6851;BME280;3464;42.728;23.296;2023-04-10T11:34:30;95201.98;;;18.50;41.87
6851;BME280;3464;42.728;23.296;2023-04-10T11:36:57;95211.06;;;17.62;43.36
6851;BME280;3464;42.728;23.296;2023-04-10T11:39:24;95211.61;;;17.77;43.74
6851;BME280;3464;42.728;23.296;2023-04-10T11:41:50;95214.02;;;17.38;44.71
6851;BME280;3464;42.728;23.296;2023-04-10T11:44:19;95234.42;;;17.35;45.77
6851;BME280;3464;42.728;23.296;2023-04-10T11:50:07;95208.31;;;17.50;45.17
6851;BME280;3464;42.728;23.296;2023-04-10T11:52:34;95205.28;;;17.96;44.80
6851;BME280;3464;42.728;23.296;2023-04-10T11:55:01;95211.55;;;17.10;46.21
6851;BME280;3464;42.728;23.296;2023-04-10T11:57:35;95211.42;;;17.18;46.25
6851;BME280;3464;42.728;23.296;2023-04-10T12:00:06;95199.84;;;16.77;46.36
6851;BME280;3464;42.728;23.296;2023-04-10T12:05:16;95202.69;;;16.29;47.73
6851;BME280;3464;42.728;23.296;2023-04-10T12:07:44;95197.81;;;16.45;47.26
6851;BME280;3464;42.728;23.296;2023-04-10T12:10:12;95214.09;;;16.30;47.96
6851;BME280;3464;42.728;23.296;2023-04-10T12:12:40;95208.00;;;15.43;50.71
6851;BME280;3464;42.728;23.296;2023-04-10T12:17:46;95199.59;;;15.38;50.57
6851;BME280;3464;42.728;23.296;2023-04-10T12:20:19;95206.19;;;15.53;51.26
6851;BME280;3464;42.728;23.296;2023-04-10T12:22:46;95219.61;;;14.75;53.32
6851;BME280;3464;42.728;23.296;2023-04-10T12:25:12;95212.67;;;14.46;54.97
6851;BME280;3464;42.728;23.296;2023-04-10T12:27:39;95220.95;;;14.03;55.19
6851;BME280;3464;42.728;23.296;2023-04-10T12:30:06;95227.38;;;13.79;57.24
6851;BME280;3464;42.728;23.296;2023-04-10T12:32:35;95220.30;;;13.59;60.68
6851;BME280;3464;42.728;23.296;2023-04-10T12:35:04;95261.69;;;12.80;64.39
6851;BME280;3464;42.728;23.296;2023-04-10T12:40:13;95269.78;;;11.56;73.06
6851;BME280;3464;42.728;23.296;2023-04-10T12:42:41;95261.14;;;11.93;73.71
6851;BME280;3464;42.728;23.296;2023-04-10T12:45:12;95261.09;;;11.86;74.10
6851;BME280;3464;42.728;23.296;2023-04-10T12:47:45;95256.59;;;12.18;75.88
6851;BME280;3464;42.728;23.296;2023-04-10T12:50:14;95244.02;;;12.65;76.62
6851;BME280;3464;42.728;23.296;2023-04-10T12:52:44;95236.00;;;12.88;74.82
6851;BME280;3464;42.728;23.296;2023-04-10T12:55:10;95230.51;;;12.29;76.17
6851;BME280;3464;42.728;23.296;2023-04-10T12:57:39;95225.47;;;12.98;74.80
6851;BME280;3464;42.728;23.296;2023-04-10T13:00:07;95224.02;;;13.72;77.93
6851;BME280;3464;42.728;23.296;2023-04-10T13:02:35;95203.58;;;14.13;73.74
6851;BME280;3464;42.728;23.296;2023-04-10T13:05:02;95195.32;;;14.53;69.10
6851;BME280;3464;42.728;23.296;2023-04-10T13:07:28;95193.41;;;15.21;68.13
6851;BME280;3464;42.728;23.296;2023-04-10T13:09:56;95193.61;;;15.45;66.30
6851;BME280;3464;42.728;23.296;2023-04-10T13:12:23;95189.57;;;15.98;72.74
6851;BME280;3464;42.728;23.296;2023-04-10T13:14:52;95184.48;;;16.58;66.50
6851;BME280;3464;42.728;23.296;2023-04-10T13:17:25;95180.38;;;16.20;61.84
6851;BME280;3464;42.728;23.296;2023-04-10T13:19:53;95173.00;;;16.60;63.19
6851;BME280;3464;42.728;23.296;2023-04-10T13:22:21;95163.91;;;17.19;61.74
6851;BME280;3464;42.728;23.296;2023-04-10T13:24:48;95161.23;;;16.26;57.72
6851;BME280;3464;42.728;23.296;2023-04-10T13:27:16;95159.89;;;16.02;56.38
6851;BME280;3464;42.728;23.296;2023-04-10T13:29:43;95155.36;;;16.76;59.79
6851;BME280;3464;42.728;23.296;2023-04-10T13:32:13;95149.91;;;15.59;54.97
6851;BME280;3464;42.728;23.296;2023-04-10T13:34:42;95147.82;;;16.17;54.52
6851;BME280;3464;42.728;23.296;2023-04-10T13:37:10;95145.11;;;16.29;53.86
6851;BME280;3464;42.728;23.296;2023-04-10T13:39:39;95149.67;;;16.34;52.74
6851;BME280;3464;42.728;23.296;2023-04-10T13:42:07;95139.35;;;16.46;51.56
6851;BME280;3464;42.728;23.296;2023-04-10T13:44:34;95150.56;;;15.39;52.49
6851;BME280;3464;42.728;23.296;2023-04-10T13:47:01;95141.09;;;15.52;54.26
6851;BME280;3464;42.728;23.296;2023-04-10T13:49:28;95134.67;;;16.48;52.07
6851;BME280;3464;42.728;23.296;2023-04-10T13:51:57;95129.07;;;15.67;53.20
6851;BME280;3464;42.728;23.296;2023-04-10T13:54:24;95145.55;;;15.69;53.40
6851;BME280;3464;42.728;23.296;2023-04-10T13:56:51;95129.80;;;16.33;52.14
6851;BME280;3464;42.728;23.296;2023-04-10T13:59:18;95127.62;;;17.11;50.04
6851;BME280;3464;42.728;23.296;2023-04-10T14:01:45;95140.42;;;16.02;51.04
6851;BME280;3464;42.728;23.296;2023-04-10T14:04:13;95143.91;;;15.64;52.06
6851;BME280;3464;42.728;23.296;2023-04-10T14:06:41;95158.96;;;15.77;53.43
6851;BME280;3464;42.728;23.296;2023-04-10T14:09:09;95133.35;;;15.93;52.85
6851;BME280;3464;42.728;23.296;2023-04-10T14:11:36;95137.75;;;15.82;53.77
6851;BME280;3464;42.728;23.296;2023-04-10T14:14:02;95142.02;;;15.46;53.83
6851;BME280;3464;42.728;23.296;2023-04-10T14:16:29;95138.83;;;15.27;54.27
6851;BME280;3464;42.728;23.296;2023-04-10T14:18:55;95141.27;;;15.71;53.19
6851;BME280;3464;42.728;23.296;2023-04-10T14:21:22;95133.19;;;16.06;52.77
6851;BME280;3464;42.728;23.296;2023-04-10T14:23:49;95130.20;;;15.45;54.11
6851;BME280;3464;42.728;23.296;2023-04-10T14:26:16;95124.16;;;16.13;52.97
6851;BME280;3464;42.728;23.296;2023-04-10T14:28:42;95121.40;;;16.29;53.10
6851;BME280;3464;42.728;23.296;2023-04-10T14:31:09;95129.53;;;16.23;51.97
6851;BME280;3464;42.728;23.296;2023-04-10T14:33:36;95135.84;;;15.67;52.78
6851;BME280;3464;42.728;23.296;2023-04-10T14:36:03;95135.70;;;16.06;52.42
6851;BME280;3464;42.728;23.296;2023-04-10T14:38:30;95138.76;;;14.94;54.37
6851;BME280;3464;42.728;23.296;2023-04-10T14:40:57;95144.22;;;14.54;55.72
6851;BME280;3464;42.728;23.296;2023-04-10T14:43:24;95147.84;;;14.73;55.23
6851;BME280;3464;42.728;23.296;2023-04-10T14:45:50;95157.38;;;14.44;56.54
6851;BME280;3464;42.728;23.296;2023-04-10T14:48:17;95161.73;;;14.30;57.08
6851;BME280;3464;42.728;23.296;2023-04-10T14:50:55;95144.12;;;14.10;57.63
6851;BME280;3464;42.728;23.296;2023-04-10T14:53:21;95142.77;;;14.27;57.33
6851;BME280;3464;42.728;23.296;2023-04-10T14:55:49;95137.33;;;14.68;56.88
6851;BME280;3464;42.728;23.296;2023-04-10T14:58:16;95140.66;;;14.74;56.93
6851;BME280;3464;42.728;23.296;2023-04-10T15:00:42;95143.30;;;15.44;55.60
6851;BME280;3464;42.728;23.296;2023-04-10T15:03:09;95138.84;;;14.88;55.81
6851;BME280;3464;42.728;23.296;2023-04-10T15:05:35;95134.83;;;15.46;55.49
6851;BME280;3464;42.728;23.296;2023-04-10T15:08:02;95137.64;;;15.58;53.84
6851;BME280;3464;42.728;23.296;2023-04-10T15:10:29;95131.60;;;15.98;54.03
6851;BME280;3464;42.728;23.296;2023-04-10T15:12:56;95128.74;;;16.72;52.48
6851;BME280;3464;42.728;23.296;2023-04-10T15:15:23;95128.38;;;16.69;52.07
6851;BME280;3464;42.728;23.296;2023-04-10T15:17:50;95128.01;;;16.39;52.17
6851;BME280;3464;42.728;23.296;2023-04-10T15:20:17;95125.78;;;16.95;51.45
6851;BME280;3464;42.728;23.296;2023-04-10T15:22:43;95130.66;;;16.84;50.66
6851;BME280;3464;42.728;23.296;2023-04-10T15:25:10;95118.27;;;16.39;50.30
6851;BME280;3464;42.728;23.296;2023-04-10T15:37:10;95116.30;;;16.81;48.65
6851;BME280;3464;42.728;23.296;2023-04-10T16:44:57;95129.30;;;16.65;49.11
6851;BME280;3464;42.728;23.296;2023-04-10T16:47:26;95137.53;;;16.25;49.89
6851;BME280;3464;42.728;23.296;2023-04-10T16:49:54;95142.08;;;14.59;54.83
6851;BME280;3464;42.728;23.296;2023-04-10T16:52:21;95142.58;;;13.88;57.75
6851;BME280;3464;42.728;23.296;2023-04-10T16:54:49;95147.30;;;13.71;58.51